createdAt,value
2023-01-31T21:06:26.466Z,79.54
2023-01-31T21:09:30.684Z,79.67
2023-01-31T21:12:36.273Z,79.15
2023-01-31T21:15:39.974Z,79.31
2023-01-31T21:18:44.113Z,80.09
2023-01-31T21:21:48.740Z,80.93
2023-01-31T21:24:51.544Z,80.96
2023-01-31T21:27:57.037Z,79.97
2023-01-31T21:31:01.045Z,80.94
2023-01-31T21:34:06.819Z,81.12
2023-01-31T21:37:11.378Z,81.20
2023-01-31T21:40:14.930Z,81.35
2023-01-31T21:43:17.736Z,82.12
2023-01-31T21:46:20.753Z,81.93
2023-01-31T21:49:25.507Z,81.33
2023-01-31T21:52:29.613Z,81.43
2023-01-31T21:55:32.519Z,81.25
2023-01-31T21:58:36.140Z,82.43
2023-01-31T22:01:39.034Z,81.44
2023-01-31T22:04:41.914Z,82.39
2023-01-31T22:07:46.002Z,82.37
2023-01-31T22:10:48.774Z,82.09
2023-01-31T22:13:55.825Z,82.67
2023-01-31T22:16:59.026Z,82.49
2023-01-31T22:20:01.778Z,82.35
2023-01-31T22:23:05.854Z,82.73
2023-01-31T22:26:18.260Z,82.42
2023-01-31T22:29:21.136Z,81.60
2023-01-31T22:32:23.844Z,82.44
2023-01-31T22:35:26.567Z,83.50
2023-01-31T22:38:30.752Z,83.40
2023-01-31T22:41:33.484Z,82.61
2023-01-31T22:44:36.228Z,83.51
2023-01-31T22:47:39.067Z,83.35
2023-01-31T22:50:41.911Z,83.42
2023-01-31T22:53:46.313Z,83.69
2023-01-31T22:56:49.091Z,85.24
2023-01-31T22:59:51.843Z,84.98
2023-01-31T23:02:54.908Z,85.09
2023-01-31T23:05:57.586Z,86.00
2023-01-31T23:09:01.699Z,86.98
2023-01-31T23:12:04.756Z,88.20
2023-01-31T23:15:08.498Z,88.13
2023-01-31T23:18:11.237Z,88.15
2023-01-31T23:21:15.659Z,87.50
2023-01-31T23:24:19.960Z,87.34
2023-01-31T23:27:22.664Z,86.59
2023-01-31T23:30:26.303Z,86.78
2023-01-31T23:33:29.316Z,87.12
2023-01-31T23:36:32.057Z,87.17
2023-01-31T23:39:36.362Z,86.14
2023-01-31T23:42:39.038Z,86.74
2023-01-31T23:45:41.781Z,86.09
2023-01-31T23:48:44.534Z,86.45
2023-01-31T23:51:47.208Z,86.32
2023-01-31T23:54:51.366Z,86.33
2023-01-31T23:57:54.184Z,86.75
